Pangolino spericolato
| Nome | Pangolino spericolato |
|---|---|
| Predefinito | Reckless Pangolin |
| Tipo | Creatura: pangolino |
| Descrizione | Quando il Pangolino Sconsiderato attacca, ottiene +1/+1 fino alla fine del turno. |
| Gusto | "La forza di un pangolino cresce con la sua velocità. Colpisci quando ne hai l'occasione!" —Diario di viaggio di Jiang Yanggu |
| Artista | Wolk Sheep |
| Espansione | Serie globale Jiang Yanggu e Mu Yanling #26 |
| Carta da parati | |
| Immagine |
Di Pangolino spericolato
Pangolino spericolato, Creatura: pangolino, progettato da Wolk Sheep rilasciato per la prima volta novembre 2016 in redazione Treasure Chest ed è stato stampato esattamente in 2 forme diverse. Attualmente viene venduto al prezzo più basso di € 0,31.
Il Pangolino Reckless sarebbe perfetto in un mazzo verde in stile aggressivo in Magic: the Gathering. La sua capacità di aumentare la propria potenza durante l'attacco può aiutare a mettere pressione sull'avversario nelle prime fasi della partita. Tuttavia, ci sono effettivamente carte migliori con effetti simili, come Avatar of the Resolute, che possono fornire buff e sinergie più significativi nei mazzi aggro verdi dedicati. Pertanto, Reckless Pangolin potrebbe non essere una scelta di alto livello per il gioco competitivo, ma potrebbe comunque trovare posto in mazzi più casual o economici.
Dove comprare
![]() | Card Kingdom | 21 uni.
| € 0,30 | visita il negozio |
![]() | Ebay.com | visita il negozio | ||
![]() | Cardkingdom | visita il negozio | ||
![]() | Printing proxies | $ 0.75 | visita il negozio |
*Questo sito contiene link di affiliazione per i quali potremmo ricevere un compenso
Gruppo
avviso di prezzo ?
Avvisami quando arriva il prezzo
Storico dell'andamento dei prezzi

Storico dei prezzi
| Data | Prezzo minimo | Prezzo medio | Decks |
|---|---|---|---|
| 2024-09-06 | 0.04 EUR | 0.18 EUR | 0 |
| 2024-09-09 | 0.04 EUR | 0.19 EUR | 0 |
| 2024-09-16 | 0.05 EUR | 0.19 EUR | 0 |
| 2024-09-23 | 0.05 EUR | 0.19 EUR | 0 |
| 2024-09-30 | 0.05 EUR | 0.18 EUR | 0 |
| 2024-10-07 | 0.04 EUR | 0.18 EUR | 0 |
| 2024-10-14 | 0.04 EUR | 0.18 EUR | 0 |
| 2024-10-21 | 0.04 EUR | 0.19 EUR | 0 |
| 2024-10-28 | 0.01 EUR | 0.17 EUR | 0 |
| 2024-11-06 | 0.02 EUR | 0.18 EUR | 0 |
| 2024-11-11 | 0.02 EUR | 0.18 EUR | 0 |
| 2024-11-18 | 0.03 EUR | 0.19 EUR | 0 |
| 2024-11-25 | 0.01 EUR | 0.18 EUR | 0 |
| 2024-12-02 | 0.04 EUR | 0.20 EUR | 0 |
| 2024-12-09 | 0.05 EUR | 0.20 EUR | 0 |
| 2024-12-19 | 0.05 EUR | 0.20 EUR | 0 |
| 2024-12-23 | 0.05 EUR | 0.20 EUR | 0 |
| 2024-12-30 | 0.05 EUR | 0.20 EUR | 0 |
| 2025-01-01 | 0.05 EUR | 0.20 EUR | 0 |
| 2025-01-06 | 0.05 EUR | 0.20 EUR | 0 |
| 2025-01-13 | 0.05 EUR | 0.20 EUR | 0 |
| 2025-01-20 | 0.05 EUR | 0.20 EUR | 0 |
| 2025-01-27 | 0.05 EUR | 0.20 EUR | 0 |
| 2025-02-03 | 0.05 EUR | 0.20 EUR | 0 |
| 2025-02-10 | 0.05 EUR | 0.20 EUR | 0 |
| 2025-02-18 | 0.01 EUR | 0.17 EUR | 0 |
| 2025-04-27 | 0.06 EUR | 0.20 EUR | 0 |
| 2025-04-28 | 0.04 EUR | 0.19 EUR | 0 |
| 2025-05-06 | 0.01 EUR | 0.17 EUR | 0 |
| 2025-05-12 | 0.01 EUR | 0.17 EUR | 0 |
| 2025-05-19 | 0.07 EUR | 0.20 EUR | 0 |
| 2025-05-28 | 0.18 EUR | 0.26 EUR | 0 |
| 2025-06-03 | 0.03 EUR | 0.18 EUR | 0 |
| 2025-06-10 | 0.03 EUR | 0.18 EUR | 0 |
| 2025-06-17 | 0.03 EUR | 0.18 EUR | 0 |
| 2025-06-23 | 0.32 EUR | 0.32 EUR | 0 |
| 2025-07-01 | 0.03 EUR | 0.18 EUR | 0 |
| 2025-07-08 | 0.02 EUR | 0.17 EUR | 0 |
| 2025-07-15 | 0.02 EUR | 0.17 EUR | 0 |
| 2025-07-22 | 0.02 EUR | 0.17 EUR | 0 |
| 2025-07-29 | 0.02 EUR | 0.17 EUR | 0 |
| 2025-08-05 | 0.33 EUR | 0.33 EUR | 0 |
| 2025-08-12 | 0.01 EUR | 0.16 EUR | 0 |
| 2025-08-18 | 0.06 EUR | 0.19 EUR | 0 |
| 2025-08-25 | 0.32 EUR | 0.32 EUR | 0 |
| 2025-09-02 | 0.32 EUR | 0.32 EUR | 0 |
| 2025-09-09 | 0.32 EUR | 0.32 EUR | 0 |
| 2025-09-15 | 0.32 EUR | 0.32 EUR | 0 |
| 2025-09-23 | 0.31 EUR | 0.31 EUR | 0 |
| 2025-09-29 | 0.32 EUR | 0.32 EUR | 0 |
| 2025-10-06 | 0.32 EUR | 0.32 EUR | 0 |
| 2025-10-13 | 0.32 EUR | 0.32 EUR | 0 |
| 2025-10-20 | 0.32 EUR | 0.32 EUR | 0 |
| 2025-10-27 | 0.32 EUR | 0.32 EUR | 0 |
| 2025-11-03 | 0.32 EUR | 0.32 EUR | 0 |
| 2025-11-10 | 0.31 EUR | 0.31 EUR | 0 |
| 2025-11-18 | 0.31 EUR | 0.31 EUR | 0 |
| 2025-11-24 | 0.32 EUR | 0.32 EUR | 0 |
| 2025-12-03 | 0.32 EUR | 0.32 EUR | 0 |
| 2025-12-08 | 0.32 EUR | 0.32 EUR | 0 |
| 2025-12-15 | 0.32 EUR | 0.32 EUR | 0 |
| 2025-12-22 | 0.33 EUR | 0.33 EUR | 0 |
| 2025-12-29 | 0.33 EUR | 0.33 EUR | 0 |
| 2026-01-01 | 0.32 EUR | 0.32 EUR | 0 |
| 2026-01-05 | 0.32 EUR | 0.32 EUR | 0 |
| 2026-01-13 | 0.32 EUR | 0.32 EUR | 0 |
| 2026-01-20 | 0.32 EUR | 0.32 EUR | 0 |
| 2026-01-26 | 0.31 EUR | 0.31 EUR | 0 |
| 2026-02-02 | 0.31 EUR | 0.31 EUR | 0 |
| 2026-02-09 | 0.31 EUR | 0.31 EUR | 0 |
| 2026-02-16 | 0.31 EUR | 0.31 EUR | 0 |
| 2026-02-23 | 0.31 EUR | 0.31 EUR | 0 |
| 2026-03-02 | 0.31 EUR | 0.31 EUR | 0 |
| 2026-03-10 | 0.31 EUR | 0.31 EUR | 0 |
| 2026-03-16 | 0.31 EUR | 0.31 EUR | 0 |
| 2026-04-02 | 0.31 EUR | 0.31 EUR | 0 |
| 2026-04-07 | 0.30 EUR | 0.30 EUR | 0 |
| 2026-04-14 | 0.30 EUR | 0.30 EUR | 0 |
| 2026-04-23 | 0.29 EUR | 0.29 EUR | 0 |
| 2026-04-30 | 0.29 EUR | 0.29 EUR | 0 |
| 2026-05-05 | 0.29 EUR | 0.29 EUR | 0 |
| 2026-05-14 | 0.29 EUR | 0.29 EUR | 0 |
| 2026-05-20 | 0.30 EUR | 0.30 EUR | 0 |
| 2026-05-25 | 0.30 EUR | 0.30 EUR | 0 |
| 2026-06-01 | 0.30 EUR | 0.30 EUR | 0 |
| 2026-06-08 | 0.30 EUR | 0.30 EUR | 0 |
| 2026-06-15 | 0.30 EUR | 0.30 EUR | 0 |
| 2026-06-23 | 0.30 EUR | 0.30 EUR | 0 |
| 2026-06-29 | 0.31 EUR | 0.31 EUR | 0 |
| 2026-07-06 | 0.30 EUR | 0.30 EUR | 0 |
| 2026-07-13 | 0.30 EUR | 0.30 EUR | 0 |
| 2026-07-20 | 0.30 EUR | 0.30 EUR | 0 |
| 2026-07-27 | 0.30 EUR | 0.30 EUR | 0 |
| 2026-08-03 | 0.30 EUR | 0.30 EUR | 0 |
| 2026-08-10 | 0.30 EUR | 0.30 EUR | 0 |
| 2026-08-17 | 0.31 EUR | 0.31 EUR | 0 |
| 2026-08-24 | 0.30 EUR | 0.30 EUR | 0 |
| 2026-09-01 | 0.30 EUR | 0.30 EUR | 0 |
Domande frequenti su Pangolino spericolato
Che tipo di carta è Pangolino spericolato?
Pangolino spericolato è Creatura: pangolino carta inserita Magic: the Gathering MTG.
Qual è l'effetto della carta Pangolino spericolato?
Quando il Pangolino Sconsiderato attacca, ottiene +1/+1 fino alla fine del turno.
Qual è il prezzo della carta Pangolino spericolato?
Pangolino spericolato attualmente inizia alle € 0,31. Visualizza i prezzi in tempo reale di più venditori nella sezione Dove acquistare sopra.
Qual è il set originale della carta Pangolino spericolato?
Pangolino spericolato è stato rilasciato per la prima volta nel set Treasure Chest, illustrato da Wolk Sheep.
Qual è la legalità della carta Pangolino spericolato?
La legalità dipende dal formato del torneo: Pangolino spericolato può essere legale in alcuni formati e vietato o limitato in altri. Consulta la ripartizione completa per formato nella sezione Legalità sopra.
Quali carte sono simili a Pangolino spericolato?
Carte simili a Pangolino spericolato includere Generale dei Goblin, Servitrice di Nefarox, Grifone della Guarnigione. Consulta l'elenco completo nella sezione Carte simili sopra.





Reazioni
0
0 Commenti
Diventa il primo a commentare